createdAt,value
2019-03-28T00:02:37.040Z,-0.20
2019-03-28T00:05:12.286Z,-0.20
2019-03-28T00:07:44.284Z,-0.10
2019-03-28T00:10:16.035Z,-0.10
2019-03-28T00:12:47.724Z,-0.10
2019-03-28T00:15:20.364Z,-0.10
2019-03-28T00:17:54.435Z,-0.10
2019-03-28T00:20:31.466Z,-0.10
2019-03-28T00:23:15.397Z,-0.20
2019-03-28T00:25:52.427Z,-0.20
2019-03-28T00:28:28.167Z,-0.20
2019-03-28T00:30:59.979Z,-0.20
2019-03-28T00:33:32.450Z,-0.30
2019-03-28T00:36:10.441Z,-0.30
2019-03-28T00:38:45.856Z,-0.30
2019-03-28T00:41:21.124Z,-0.30
2019-03-28T00:43:53.770Z,-0.40
2019-03-28T00:46:24.632Z,-0.40
2019-03-28T00:48:54.917Z,-0.40
2019-03-28T00:51:30.731Z,-0.50
2019-03-28T00:54:06.119Z,-0.50
2019-03-28T00:56:46.915Z,-0.50
2019-03-28T00:59:15.366Z,-0.50
2019-03-28T01:01:49.664Z,-0.50
2019-03-28T01:04:27.421Z,-0.50
2019-03-28T01:07:04.840Z,-0.50
2019-03-28T01:09:47.825Z,-0.60
2019-03-28T01:12:27.580Z,-0.60
2019-03-28T01:14:58.653Z,-0.70
2019-03-28T01:17:31.245Z,-0.70
2019-03-28T01:20:06.546Z,-0.70
2019-03-28T01:22:42.183Z,-0.70
2019-03-28T01:25:19.270Z,-0.70
2019-03-28T01:27:50.553Z,-0.70
2019-03-28T01:30:29.890Z,-0.70
2019-03-28T01:33:05.311Z,-0.70
2019-03-28T01:35:41.483Z,-0.80
2019-03-28T01:38:20.275Z,-0.80
2019-03-28T01:40:56.378Z,-0.80
2019-03-28T01:43:30.591Z,-0.90
2019-03-28T01:46:05.666Z,-0.90
2019-03-28T01:48:42.150Z,-1.00
2019-03-28T01:51:16.527Z,-1.00
2019-03-28T01:53:48.083Z,-1.00
2019-03-28T01:56:25.167Z,-1.00
2019-03-28T01:59:01.420Z,-1.00
2019-03-28T02:01:36.176Z,-1.00
2019-03-28T02:04:10.637Z,-1.00
2019-03-28T02:06:43.400Z,-1.00
2019-03-28T02:09:15.749Z,-1.00
2019-03-28T02:11:50.241Z,-1.00
2019-03-28T02:14:34.569Z,-1.10
2019-03-28T02:17:05.425Z,-1.10
2019-03-28T02:19:39.526Z,-1.10
2019-03-28T02:22:16.937Z,-1.20
2019-03-28T02:24:52.151Z,-1.20
2019-03-28T02:27:28.124Z,-1.20
2019-03-28T02:29:59.996Z,-1.30
2019-03-28T02:32:32.240Z,-1.30
2019-03-28T02:35:09.066Z,-1.30
2019-03-28T02:37:43.150Z,-1.30
2019-03-28T02:40:20.036Z,-1.30
2019-03-28T02:42:57.964Z,-1.30
2019-03-28T02:45:30.745Z,-1.40
2019-03-28T02:48:05.331Z,-1.40
2019-03-28T02:50:39.467Z,-1.40
2019-03-28T02:53:13.821Z,-1.40
2019-03-28T02:55:50.047Z,-1.40
2019-03-28T02:58:24.025Z,-1.40
2019-03-28T03:00:56.907Z,-1.40
2019-03-28T03:03:27.667Z,-1.50
2019-03-28T03:05:59.295Z,-1.60
2019-03-28T03:08:33.024Z,-1.60
2019-03-28T03:11:04.220Z,-1.60
2019-03-28T03:13:38.143Z,-1.60
2019-03-28T03:16:11.532Z,-1.50
2019-03-28T03:18:44.269Z,-1.60
2019-03-28T03:21:19.664Z,-1.60
2019-03-28T03:23:52.433Z,-1.60
2019-03-28T03:26:26.511Z,-1.70
2019-03-28T03:28:59.749Z,-1.70
2019-03-28T03:31:32.616Z,-1.70
2019-03-28T03:34:05.137Z,-1.70
2019-03-28T03:36:37.859Z,-1.70
2019-03-28T03:39:12.137Z,-1.70
2019-03-28T03:41:47.556Z,-1.70
2019-03-28T03:44:26.444Z,-1.70
2019-03-28T03:46:58.523Z,-1.70
2019-03-28T03:49:29.230Z,-1.80
2019-03-28T03:52:02.573Z,-1.80
2019-03-28T03:54:37.920Z,-1.80
2019-03-28T03:57:13.284Z,-1.70
2019-03-28T03:59:44.964Z,-1.70
2019-03-28T04:02:19.276Z,-1.70
2019-03-28T04:04:56.894Z,-1.60
2019-03-28T04:07:37.964Z,-1.60
2019-03-28T04:10:12.807Z,-1.60
2019-03-28T04:12:49.800Z,-1.60
2019-03-28T04:15:24.354Z,-1.60
2019-03-28T04:17:59.054Z,-1.60
2019-03-28T04:20:37.707Z,-1.60
2019-03-28T04:23:15.431Z,-1.60
2019-03-28T04:25:49.323Z,-1.60
2019-03-28T04:28:32.398Z,-1.60
2019-03-28T04:31:02.175Z,-1.60
2019-03-28T04:33:33.636Z,-1.60
2019-03-28T04:36:09.754Z,-1.60
2019-03-28T04:38:46.669Z,-1.60
2019-03-28T04:41:24.987Z,-1.60
2019-03-28T04:44:01.344Z,-1.60
2019-03-28T04:46:41.054Z,-1.60
2019-03-28T04:49:16.643Z,-1.60
2019-03-28T04:51:49.358Z,-1.60
2019-03-28T04:54:22.019Z,-1.60
2019-03-28T04:56:58.901Z,-1.60
2019-03-28T04:59:35.976Z,-1.60
2019-03-28T05:02:09.991Z,-1.60
2019-03-28T05:04:50.241Z,-1.50
2019-03-28T05:07:32.706Z,-1.40
2019-03-28T05:10:06.150Z,-1.40
2019-03-28T05:12:40.319Z,-1.40
2019-03-28T05:15:12.299Z,-1.30
2019-03-28T05:17:46.295Z,-1.20
2019-03-28T05:20:22.789Z,-1.20
2019-03-28T05:22:59.871Z,-1.00
2019-03-28T05:25:31.640Z,-0.90
2019-03-28T05:28:05.983Z,-0.70
2019-03-28T05:30:39.270Z,-0.60
2019-03-28T05:33:16.163Z,-0.50
2019-03-28T05:35:52.723Z,-0.20
2019-03-28T05:38:24.610Z,-0.10
2019-03-28T05:40:55.720Z,0.10
2019-03-28T05:43:27.893Z,0.30
2019-03-28T05:45:58.826Z,0.50
2019-03-28T05:48:30.843Z,0.70
2019-03-28T05:51:02.035Z,0.80
2019-03-28T05:53:35.075Z,1.00
2019-03-28T05:56:11.563Z,1.20
2019-03-28T05:58:42.900Z,1.30
2019-03-28T06:01:16.134Z,1.50
2019-03-28T06:03:47.299Z,1.70
2019-03-28T06:06:18.792Z,1.80
2019-03-28T06:08:53.993Z,2.00
2019-03-28T06:11:29.543Z,2.30
2019-03-28T06:14:04.018Z,2.60
2019-03-28T06:16:38.136Z,2.80
2019-03-28T06:19:10.623Z,3.00
2019-03-28T06:21:44.267Z,3.30
2019-03-28T06:24:15.073Z,3.50
2019-03-28T06:26:50.238Z,3.60
2019-03-28T06:29:24.473Z,3.70
2019-03-28T06:31:57.279Z,3.90
2019-03-28T06:34:27.455Z,4.00
2019-03-28T06:37:01.063Z,4.10
2019-03-28T06:39:37.757Z,4.20
2019-03-28T06:42:14.687Z,4.40
2019-03-28T06:44:54.503Z,4.50
2019-03-28T06:47:31.008Z,4.70
2019-03-28T06:50:06.174Z,4.80
2019-03-28T06:52:42.028Z,4.90
2019-03-28T06:55:16.520Z,5.00
2019-03-28T06:57:49.741Z,5.10
2019-03-28T07:00:21.555Z,5.20
2019-03-28T07:02:55.205Z,5.30
2019-03-28T07:05:29.290Z,5.30
2019-03-28T07:08:06.860Z,5.40
2019-03-28T07:10:38.949Z,5.50
2019-03-28T07:13:14.385Z,5.60
2019-03-28T07:15:49.736Z,5.80
2019-03-28T07:18:28.230Z,5.90
2019-03-28T07:21:05.830Z,6.00
2019-03-28T07:23:38.738Z,6.20
2019-03-28T07:26:11.146Z,6.30
2019-03-28T07:28:47.716Z,6.30
2019-03-28T07:31:21.108Z,6.40
2019-03-28T07:33:53.770Z,6.40
2019-03-28T07:36:34.001Z,6.40
2019-03-28T07:39:10.819Z,6.40
2019-03-28T07:41:51.903Z,6.40
2019-03-28T07:44:26.441Z,6.40
2019-03-28T07:47:01.335Z,6.40
2019-03-28T07:49:32.891Z,6.40
2019-03-28T07:52:04.411Z,6.40
2019-03-28T07:54:34.700Z,6.40
2019-03-28T07:57:09.127Z,6.40
2019-03-28T07:59:46.405Z,6.40
2019-03-28T08:02:27.915Z,6.50
2019-03-28T08:05:04.401Z,6.60
2019-03-28T08:07:45.492Z,6.70
2019-03-28T08:10:17.363Z,6.90
2019-03-28T08:12:49.595Z,7.00
2019-03-28T08:15:21.279Z,7.10
2019-03-28T08:17:51.834Z,7.20
2019-03-28T08:20:22.826Z,7.40
2019-03-28T08:22:53.020Z,7.50
2019-03-28T08:25:28.419Z,7.60
2019-03-28T08:28:01.899Z,7.70
2019-03-28T08:30:40.134Z,7.80
2019-03-28T08:33:12.298Z,7.90
2019-03-28T08:35:51.943Z,8.10
2019-03-28T08:38:29.990Z,8.20
2019-03-28T08:41:03.438Z,8.30
2019-03-28T08:43:39.568Z,8.40
2019-03-28T08:46:16.675Z,8.50
2019-03-28T08:48:48.707Z,8.60
2019-03-28T08:51:22.558Z,8.80
2019-03-28T08:54:00.899Z,8.90
2019-03-28T08:56:39.764Z,9.10
2019-03-28T08:59:13.503Z,9.20
2019-03-28T09:01:45.544Z,9.30
2019-03-28T09:04:18.461Z,9.40
2019-03-28T09:06:49.102Z,9.60
2019-03-28T09:09:26.850Z,9.60
2019-03-28T09:12:00.227Z,9.70
2019-03-28T09:14:32.782Z,9.70
2019-03-28T09:17:06.715Z,9.90
2019-03-28T09:19:41.125Z,10.00
2019-03-28T09:22:14.579Z,10.10
2019-03-28T09:24:52.031Z,10.10
2019-03-28T09:27:26.276Z,10.20
2019-03-28T09:30:03.208Z,10.30
2019-03-28T09:33:05.894Z,10.30
2019-03-28T09:35:38.772Z,10.40
2019-03-28T09:38:22.015Z,10.50
2019-03-28T09:40:55.714Z,10.60
2019-03-28T09:43:29.568Z,10.60
2019-03-28T09:46:27.628Z,10.70
2019-03-28T09:49:10.608Z,10.70
2019-03-28T09:51:47.720Z,10.80
2019-03-28T09:54:24.782Z,10.90
2019-03-28T09:56:57.999Z,11.00
2019-03-28T09:59:28.002Z,11.00
2019-03-28T10:02:01.309Z,11.10
2019-03-28T10:04:40.674Z,11.20
2019-03-28T10:07:17.092Z,11.20
2019-03-28T10:09:50.181Z,11.30
2019-03-28T10:12:21.418Z,11.50
2019-03-28T10:14:51.624Z,11.70
2019-03-28T10:17:23.371Z,11.70
2019-03-28T10:19:54.604Z,11.70
2019-03-28T10:22:29.331Z,11.70
2019-03-28T10:25:04.257Z,11.80
2019-03-28T10:27:37.723Z,11.80
2019-03-28T10:30:08.450Z,11.90
2019-03-28T10:32:39.658Z,11.90
2019-03-28T10:35:16.455Z,12.00
2019-03-28T10:37:44.521Z,12.10
2019-03-28T10:40:19.090Z,12.20
2019-03-28T10:42:51.738Z,12.20
2019-03-28T10:45:25.541Z,12.30
2019-03-28T10:47:57.183Z,12.30
2019-03-28T10:50:40.813Z,12.30
2019-03-28T10:53:06.353Z,12.40
2019-03-28T10:55:42.815Z,12.40
2019-03-28T10:58:19.393Z,12.30
2019-03-28T11:00:49.981Z,12.20
2019-03-28T11:03:21.122Z,12.20
2019-03-28T11:05:54.146Z,12.30
2019-03-28T11:08:26.687Z,12.30
2019-03-28T11:11:00.500Z,12.40
2019-03-28T11:13:33.399Z,12.60
2019-03-28T11:16:07.625Z,12.70
2019-03-28T11:18:39.672Z,12.80
2019-03-28T11:21:09.996Z,12.80
2019-03-28T11:23:51.304Z,12.80
2019-03-28T11:26:24.441Z,12.90
2019-03-28T11:28:55.175Z,12.90
2019-03-28T11:31:28.723Z,12.80
2019-03-28T11:34:04.383Z,12.80
2019-03-28T11:36:39.775Z,12.80
2019-03-28T11:39:13.811Z,12.80
2019-03-28T11:41:48.198Z,12.70
2019-03-28T11:44:23.551Z,12.70
2019-03-28T11:46:59.357Z,12.80
2019-03-28T11:49:31.558Z,12.80
2019-03-28T11:52:01.846Z,12.80
2019-03-28T11:54:34.562Z,12.90
2019-03-28T11:57:11.403Z,13.00
2019-03-28T11:59:44.160Z,13.10
2019-03-28T12:02:20.408Z,13.20
2019-03-28T12:04:50.531Z,13.30
2019-03-28T12:07:21.231Z,13.30
2019-03-28T12:09:54.535Z,13.30
2019-03-28T12:12:25.587Z,13.30
2019-03-28T12:14:58.243Z,13.20
2019-03-28T12:17:30.663Z,13.20
2019-03-28T12:20:07.176Z,13.20
2019-03-28T12:22:38.450Z,13.20
2019-03-28T12:25:10.133Z,13.20
2019-03-28T12:27:41.696Z,13.10
2019-03-28T12:30:16.044Z,13.00
2019-03-28T12:32:50.539Z,13.00
2019-03-28T12:35:23.423Z,12.90
2019-03-28T12:37:56.387Z,12.90
2019-03-28T12:40:27.046Z,12.90
2019-03-28T12:42:57.812Z,12.90
2019-03-28T12:45:28.711Z,12.80
2019-03-28T12:48:00.427Z,12.70
2019-03-28T12:50:38.978Z,12.60
2019-03-28T12:53:12.826Z,12.40
2019-03-28T12:55:46.604Z,12.30
2019-03-28T12:58:23.141Z,12.10
2019-03-28T13:00:57.987Z,12.00
2019-03-28T13:03:44.768Z,11.90
2019-03-28T13:06:09.635Z,11.90
2019-03-28T13:08:44.034Z,11.90
2019-03-28T13:11:20.266Z,11.80
2019-03-28T13:13:51.047Z,11.90
2019-03-28T13:16:23.482Z,11.90
2019-03-28T13:18:55.903Z,11.90
2019-03-28T13:21:32.197Z,12.00
2019-03-28T13:24:07.675Z,12.00
2019-03-28T13:26:38.402Z,12.10
2019-03-28T13:29:10.255Z,12.10
2019-03-28T13:31:48.355Z,12.10
2019-03-28T13:34:20.204Z,12.10
2019-03-28T13:36:53.443Z,12.20
2019-03-28T13:39:27.814Z,12.20
2019-03-28T13:42:04.402Z,12.20
2019-03-28T13:44:39.777Z,12.30
2019-03-28T13:47:15.047Z,12.40
2019-03-28T13:49:48.034Z,12.30
2019-03-28T13:52:20.128Z,12.40
2019-03-28T13:54:53.021Z,12.40
2019-03-28T13:57:24.467Z,12.40
2019-03-28T13:59:57.189Z,12.40
2019-03-28T14:02:29.503Z,12.50
2019-03-28T14:05:00.495Z,12.50
2019-03-28T14:07:39.871Z,12.50
2019-03-28T14:10:14.555Z,12.50
2019-03-28T14:12:45.416Z,12.60
2019-03-28T14:15:18.920Z,12.60
2019-03-28T14:17:55.555Z,12.70
2019-03-28T14:20:30.847Z,12.60
2019-03-28T14:23:06.915Z,12.60
2019-03-28T14:25:38.683Z,12.70
2019-03-28T14:28:09.252Z,12.70
2019-03-28T14:30:40.460Z,12.80
2019-03-28T14:33:15.640Z,12.80
2019-03-28T14:35:45.004Z,12.70
2019-03-28T14:38:17.943Z,12.80
2019-03-28T14:40:49.766Z,12.90
2019-03-28T14:43:22.868Z,12.90
2019-03-28T14:45:56.614Z,12.90
2019-03-28T14:48:31.115Z,12.90
2019-03-28T14:51:02.661Z,12.90
2019-03-28T14:53:32.948Z,12.90
2019-03-28T14:56:05.610Z,12.90
2019-03-28T14:58:38.318Z,12.80
2019-03-28T15:01:13.365Z,12.80
2019-03-28T15:03:47.424Z,13.00
2019-03-28T15:06:30.566Z,13.00
2019-03-28T15:09:09.866Z,13.00
2019-03-28T15:11:42.553Z,13.10
2019-03-28T15:14:15.905Z,13.10
2019-03-28T15:16:49.543Z,13.00
2019-03-28T15:19:29.985Z,13.10
2019-03-28T15:22:00.564Z,13.10
2019-03-28T15:24:35.943Z,13.10
2019-03-28T15:27:09.737Z,13.10
2019-03-28T15:29:50.053Z,13.10
2019-03-28T15:32:42.309Z,13.00
2019-03-28T15:35:19.143Z,13.10
2019-03-28T15:37:53.825Z,13.20
2019-03-28T15:40:28.053Z,13.30
2019-03-28T15:42:59.739Z,13.30
2019-03-28T15:45:31.852Z,13.30
2019-03-28T15:48:07.370Z,13.30
2019-03-28T15:50:42.687Z,13.30
2019-03-28T15:53:16.907Z,13.20
2019-03-28T15:55:51.107Z,13.20
2019-03-28T15:58:26.626Z,13.10
2019-03-28T16:01:03.051Z,13.10
2019-03-28T16:03:52.015Z,13.10
2019-03-28T16:06:13.282Z,13.00
2019-03-28T16:08:47.364Z,12.90
2019-03-28T16:11:24.459Z,12.90
2019-03-28T16:13:58.733Z,12.80
2019-03-28T16:16:34.058Z,12.70
2019-03-28T16:19:07.976Z,12.60
2019-03-28T16:21:43.682Z,12.50
2019-03-28T16:24:17.155Z,12.50
2019-03-28T16:26:51.552Z,12.40
2019-03-28T16:29:40.625Z,12.30
2019-03-28T16:32:15.981Z,12.20
2019-03-28T16:34:47.488Z,12.10
2019-03-28T16:37:20.958Z,12.00
2019-03-28T16:39:56.324Z,12.00
2019-03-28T16:42:30.640Z,11.80
2019-03-28T16:45:07.555Z,11.80
2019-03-28T16:47:41.071Z,11.70
2019-03-28T16:50:15.504Z,11.60
2019-03-28T16:52:48.172Z,11.50
2019-03-28T16:55:26.239Z,11.40
2019-03-28T16:57:58.859Z,11.30
2019-03-28T17:00:43.009Z,11.20
2019-03-28T17:03:17.632Z,11.00
2019-03-28T17:05:54.863Z,11.00
2019-03-28T17:08:25.920Z,10.90
2019-03-28T17:11:17.535Z,10.80
2019-03-28T17:14:20.410Z,10.70
2019-03-28T17:17:00.181Z,10.70
2019-03-28T17:19:33.631Z,10.50
2019-03-28T17:22:09.429Z,10.50
2019-03-28T17:24:42.633Z,10.50
2019-03-28T17:27:14.715Z,10.50
2019-03-28T17:29:50.875Z,10.50
2019-03-28T17:32:21.913Z,10.40
2019-03-28T17:34:53.350Z,10.40
2019-03-28T17:37:29.793Z,10.40
2019-03-28T17:40:03.083Z,10.30
2019-03-28T17:42:38.132Z,10.20
2019-03-28T17:45:17.080Z,10.20
2019-03-28T17:47:49.872Z,10.20
2019-03-28T17:50:22.569Z,10.10
2019-03-28T17:52:57.965Z,10.10
2019-03-28T17:55:33.729Z,10.20
2019-03-28T17:58:08.030Z,10.20
2019-03-28T18:00:45.292Z,10.20
2019-03-28T18:03:30.601Z,10.10
2019-03-28T18:05:58.284Z,10.00
2019-03-28T18:08:27.591Z,9.90
2019-03-28T18:11:00.492Z,9.90
2019-03-28T18:13:31.624Z,9.80
2019-03-28T18:16:02.264Z,9.80
2019-03-28T18:18:34.788Z,9.70
2019-03-28T18:21:11.648Z,9.70
2019-03-28T18:23:46.911Z,9.60
2019-03-28T18:26:25.129Z,9.60
2019-03-28T18:28:57.184Z,9.50
2019-03-28T18:31:33.826Z,9.50
2019-03-28T18:34:12.184Z,9.60
2019-03-28T18:36:47.437Z,9.60
2019-03-28T18:39:23.713Z,9.60
2019-03-28T18:41:57.899Z,9.60
2019-03-28T18:44:29.951Z,9.60
2019-03-28T18:47:01.546Z,9.60
2019-03-28T18:49:36.453Z,9.70
2019-03-28T18:52:10.784Z,9.60
2019-03-28T18:54:43.492Z,9.60
2019-03-28T18:57:19.708Z,9.50
2019-03-28T18:59:54.591Z,9.50
2019-03-28T19:02:32.798Z,9.50
2019-03-28T19:05:19.237Z,9.50
2019-03-28T19:07:39.759Z,9.40
2019-03-28T19:10:15.906Z,9.40
2019-03-28T19:12:49.317Z,9.50
2019-03-28T19:15:22.302Z,9.50
2019-03-28T19:17:53.935Z,9.50
2019-03-28T19:20:25.669Z,9.40
2019-03-28T19:23:00.064Z,9.50
2019-03-28T19:25:37.568Z,9.50
2019-03-28T19:28:27.634Z,9.50
2019-03-28T19:30:58.367Z,9.50
2019-03-28T19:33:38.025Z,9.50
2019-03-28T19:36:08.505Z,9.50
2019-03-28T19:38:40.132Z,9.50
2019-03-28T19:41:10.539Z,9.60
2019-03-28T19:43:42.018Z,9.70
2019-03-28T19:46:15.214Z,9.60
2019-03-28T19:48:49.474Z,9.60
2019-03-28T19:51:24.514Z,9.60
2019-03-28T19:53:58.612Z,9.50
2019-03-28T19:56:35.526Z,9.50
2019-03-28T19:59:09.702Z,9.40
2019-03-28T20:01:42.432Z,9.40
2019-03-28T20:04:13.263Z,9.40
2019-03-28T20:06:44.478Z,9.30
2019-03-28T20:09:16.642Z,9.20
2019-03-28T20:11:53.351Z,9.10
2019-03-28T20:14:43.402Z,9.10
2019-03-28T20:17:14.638Z,9.00
2019-03-28T20:19:46.760Z,8.90
2019-03-28T20:22:20.290Z,8.80
2019-03-28T20:24:54.072Z,8.80
2019-03-28T20:27:30.669Z,8.70
2019-03-28T20:30:05.571Z,8.70
2019-03-28T20:32:41.224Z,8.60
2019-03-28T20:35:16.835Z,8.70
2019-03-28T20:37:48.158Z,8.70
2019-03-28T20:40:21.889Z,8.60
2019-03-28T20:42:55.435Z,8.60
2019-03-28T20:45:27.020Z,8.50
2019-03-28T20:47:58.154Z,8.50
2019-03-28T20:50:31.804Z,8.60
2019-03-28T20:53:02.987Z,8.50
2019-03-28T20:55:38.583Z,8.60
2019-03-28T20:58:10.762Z,8.50
2019-03-28T21:00:51.654Z,8.40
2019-03-28T21:03:26.139Z,8.40
2019-03-28T21:06:14.545Z,8.40
2019-03-28T21:08:40.523Z,8.30
2019-03-28T21:11:11.363Z,8.40
2019-03-28T21:13:43.363Z,8.30
2019-03-28T21:16:14.223Z,8.20
2019-03-28T21:18:52.092Z,8.20
2019-03-28T21:21:30.696Z,8.10
2019-03-28T21:24:05.264Z,8.10
2019-03-28T21:26:40.971Z,8.10
2019-03-28T21:29:17.267Z,8.10
2019-03-28T21:31:50.443Z,8.20
2019-03-28T21:34:23.167Z,8.20
2019-03-28T21:36:55.502Z,8.30
2019-03-28T21:39:30.751Z,8.30
2019-03-28T21:42:07.167Z,8.30
2019-03-28T21:44:43.211Z,8.30
2019-03-28T21:47:21.015Z,8.10
2019-03-28T21:49:57.411Z,8.10
2019-03-28T21:52:33.833Z,8.10
2019-03-28T21:55:11.475Z,8.10
2019-03-28T21:57:45.670Z,8.10
2019-03-28T22:00:21.375Z,8.10
2019-03-28T22:02:53.342Z,8.00
2019-03-28T22:05:23.854Z,8.00
2019-03-28T22:07:57.479Z,8.10
2019-03-28T22:10:29.662Z,8.00
2019-03-28T22:13:00.503Z,8.00
2019-03-28T22:15:34.356Z,8.10
2019-03-28T22:18:08.769Z,8.20
2019-03-28T22:20:43.872Z,8.20
2019-03-28T22:23:15.656Z,8.10
2019-03-28T22:25:53.506Z,8.20
2019-03-28T22:28:29.281Z,8.30
2019-03-28T22:31:04.852Z,8.30
2019-03-28T22:33:43.111Z,8.30
2019-03-28T22:36:18.218Z,8.30
2019-03-28T22:38:58.755Z,8.20
2019-03-28T22:41:52.974Z,8.20
2019-03-28T22:44:28.353Z,8.20
2019-03-28T22:47:03.398Z,8.20
2019-03-28T22:49:37.982Z,8.30
2019-03-28T22:52:10.939Z,8.30
2019-03-28T22:54:45.503Z,8.20
2019-03-28T22:57:22.052Z,8.30
2019-03-28T22:59:56.639Z,8.30
2019-03-28T23:02:32.127Z,8.30
2019-03-28T23:05:05.594Z,8.30
2019-03-28T23:07:41.951Z,8.30
2019-03-28T23:10:20.956Z,8.10
2019-03-28T23:12:54.465Z,8.10
2019-03-28T23:15:29.890Z,8.20
2019-03-28T23:18:04.415Z,8.20
2019-03-28T23:20:39.515Z,8.20
2019-03-28T23:23:16.980Z,8.30
2019-03-28T23:25:49.893Z,8.40
2019-03-28T23:28:25.292Z,8.40
2019-03-28T23:31:01.705Z,8.40
2019-03-28T23:33:33.142Z,8.40
2019-03-28T23:36:04.061Z,8.40
2019-03-28T23:38:37.003Z,8.40
2019-03-28T23:41:12.043Z,8.40
2019-03-28T23:43:48.331Z,8.40
2019-03-28T23:46:21.731Z,8.30
2019-03-28T23:48:57.023Z,8.30
2019-03-28T23:51:33.384Z,8.30
2019-03-28T23:54:08.713Z,8.40
2019-03-28T23:56:50.631Z,8.40
2019-03-28T23:59:27.370Z,8.40
